Time;durP1;ratioP1;P1;durP2;ratioP2;P2;SDS_P1;SDS_P2;PMS_P1;PMS_P2;Temp;Humidity;BMP_temperature;BMP_pressure;BME280_temperature;BME280_humidity;BME280_pressure;Samples;Min_cycle;Max_cycle;Signal;HPM_P1;HPM_P2
2023/08/31 00:01:35;;;;;;;;;;;;;;;14.78;100.00;95811.96;110290;1275;22455;-91
2023/08/31 00:04:03;;;;;;;;;;;;;;;14.79;100.00;95809.74;110361;1271;124832;-91
2023/08/31 00:06:31;;;;;;;;;;;;;;;14.78;100.00;95808.98;110294;1272;23610;-91
2023/08/31 00:08:59;;;;;;;;;;;;;;;14.78;100.00;95809.27;110206;1271;22470;-91
2023/08/31 00:11:26;;;;;;;;;;;;;;;14.78;100.00;95813.02;110122;1279;124945;-92
2023/08/31 00:13:53;;;;;;;;;;;;;;;14.77;100.00;95809.11;110433;1276;22455;-91
2023/08/31 00:16:23;;;;;;;;;;;;;;;14.78;100.00;95811.23;110272;1278;124847;-91
2023/08/31 00:18:51;;;;;;;;;;;;;;;14.76;100.00;95814.17;110412;1271;22431;-90
2023/08/31 00:21:28;;;;;;;;;;;;;;;14.75;100.00;95814.61;110271;1272;22427;-91
2023/08/31 00:23:54;;;;;;;;;;;;;;;14.73;100.00;95815.77;110084;1273;124639;-91
2023/08/31 00:26:21;;;;;;;;;;;;;;;14.69;100.00;95816.52;110422;1273;22466;-90
2023/08/31 00:28:48;;;;;;;;;;;;;;;14.68;100.00;95813.72;110163;1272;124882;-91
2023/08/31 00:31:15;;;;;;;;;;;;;;;14.69;100.00;95812.70;110245;1278;22434;-91
2023/08/31 00:33:43;;;;;;;;;;;;;;;14.69;100.00;95809.30;110402;1272;22944;-90
2023/08/31 00:36:10;;;;;;;;;;;;;;;14.69;100.00;95801.47;110105;1278;124581;-91
2023/08/31 00:38:37;;;;;;;;;;;;;;;14.69;100.00;95802.52;110282;1272;22458;-91
2023/08/31 00:41:05;;;;;;;;;;;;;;;14.68;100.00;95803.70;110290;1272;125260;-91
2023/08/31 00:43:33;;;;;;;;;;;;;;;14.69;100.00;95807.89;110209;1273;22465;-91
2023/08/31 00:46:00;;;;;;;;;;;;;;;14.71;100.00;95810.29;110119;1276;124763;-91
2023/08/31 00:48:27;;;;;;;;;;;;;;;14.72;100.00;95809.43;110196;1272;22479;-89
2023/08/31 00:50:53;;;;;;;;;;;;;;;14.74;100.00;95813.07;110384;1278;23277;-90
2023/08/31 00:53:20;;;;;;;;;;;;;;;14.74;100.00;95810.61;110285;1274;125043;-90
2023/08/31 00:55:48;;;;;;;;;;;;;;;14.72;100.00;95809.11;110282;1278;22491;-90
2023/08/31 00:58:16;;;;;;;;;;;;;;;14.72;100.00;95805.61;110182;1279;125074;-90
2023/08/31 01:00:45;;;;;;;;;;;;;;;14.71;100.00;95805.91;110371;1272;22463;-90
2023/08/31 01:03:16;;;;;;;;;;;;;;;14.69;100.00;95809.83;110364;1272;23262;-90
2023/08/31 01:05:47;;;;;;;;;;;;;;;14.70;100.00;95809.70;110228;1272;124689;-90
2023/08/31 01:08:25;;;;;;;;;;;;;;;14.69;100.00;95811.92;110429;1275;22434;-90
2023/08/31 01:10:54;;;;;;;;;;;;;;;14.68;100.00;95811.42;110175;1279;124792;-91
2023/08/31 01:13:22;;;;;;;;;;;;;;;14.65;100.00;95814.27;110466;1278;22472;-92
2023/08/31 01:15:53;;;;;;;;;;;;;;;14.64;100.00;95820.20;110187;1279;124708;-90
2023/08/31 01:18:21;;;;;;;;;;;;;;;14.62;100.00;95818.45;110453;1278;22412;-91
2023/08/31 01:20:55;;;;;;;;;;;;;;;14.62;100.00;95822.63;110328;1276;22462;-91
2023/08/31 01:23:22;;;;;;;;;;;;;;;14.60;100.00;95822.48;110221;1270;125196;-91
2023/08/31 01:25:49;;;;;;;;;;;;;;;14.60;100.00;95823.58;110253;1276;22580;-91
2023/08/31 01:28:17;;;;;;;;;;;;;;;14.59;100.00;95823.02;110275;1275;125329;-91
2023/08/31 01:30:44;;;;;;;;;;;;;;;14.58;100.00;95826.09;110290;1279;23072;-90
2023/08/31 01:33:12;;;;;;;;;;;;;;;14.59;100.00;95834.06;110234;1279;22451;-91
2023/08/31 01:35:41;;;;;;;;;;;;;;;14.57;100.00;95842.59;110172;1279;125036;-91
2023/08/31 01:38:08;;;;;;;;;;;;;;;14.55;100.00;95842.27;110328;1272;22485;-91
2023/08/31 01:40:40;;;;;;;;;;;;;;;14.54;100.00;95844.55;110112;1276;125051;-91
2023/08/31 01:43:07;;;;;;;;;;;;;;;14.53;100.00;95843.42;110226;1272;22540;-90
2023/08/31 01:45:35;;;;;;;;;;;;;;;14.50;100.00;95841.77;110362;1271;23479;-91
2023/08/31 01:48:02;;;;;;;;;;;;;;;14.50;100.00;95840.25;110278;1272;124978;-91
2023/08/31 01:50:29;;;;;;;;;;;;;;;14.49;100.00;95836.52;110282;1278;22416;-90
2023/08/31 01:52:56;;;;;;;;;;;;;;;14.49;100.00;95838.81;110197;1272;124570;-91
2023/08/31 01:55:23;;;;;;;;;;;;;;;14.47;100.00;95840.39;110249;1274;22444;-91
2023/08/31 01:57:50;;;;;;;;;;;;;;;14.46;100.00;95840.87;110291;1276;22513;-91
2023/08/31 02:00:18;;;;;;;;;;;;;;;14.48;100.00;95839.30;110333;1278;22384;-90
2023/08/31 02:02:45;;;;;;;;;;;;;;;14.49;100.00;95843.88;110275;1275;22521;-92
2023/08/31 02:05:15;;;;;;;;;;;;;;;14.47;100.00;95842.39;110220;1272;124802;-91
2023/08/31 02:07:41;;;;;;;;;;;;;;;14.45;100.00;95846.39;110415;1275;22435;-91
2023/08/31 02:10:08;;;;;;;;;;;;;;;14.46;100.00;95847.55;110072;1273;125298;-91
2023/08/31 02:12:36;;;;;;;;;;;;;;;14.46;100.00;95848.55;110329;1272;22411;-91
2023/08/31 02:15:06;;;;;;;;;;;;;;;14.45;100.00;95850.94;110377;1278;22423;-91
2023/08/31 02:17:33;;;;;;;;;;;;;;;14.46;100.00;95851.48;110205;1279;124615;-91
2023/08/31 02:20:01;;;;;;;;;;;;;;;14.47;100.00;95851.08;110303;1273;22456;-91
2023/08/31 02:22:29;;;;;;;;;;;;;;;14.49;100.00;95851.15;110191;1277;125253;-92
2023/08/31 02:24:56;;;;;;;;;;;;;;;14.49;100.00;95845.33;110361;1272;22458;-90
2023/08/31 02:27:23;;;;;;;;;;;;;;;14.51;100.00;95845.19;110240;1273;22918;-91
2023/08/31 02:29:50;;;;;;;;;;;;;;;14.51;100.00;95845.42;110243;1272;125247;-92
2023/08/31 02:32:17;;;;;;;;;;;;;;;14.52;100.00;95845.45;110277;1275;185795;-90
2023/08/31 02:34:45;;;;;;;;;;;;;;;14.53;100.00;95849.02;110119;1274;124842;-91
2023/08/31 02:37:11;;;;;;;;;;;;;;;14.54;100.00;95858.61;110171;1278;23287;-91
2023/08/31 02:39:38;;;;;;;;;;;;;;;14.52;100.00;95859.65;110343;1272;22434;-91
2023/08/31 02:42:05;;;;;;;;;;;;;;;14.49;100.00;95858.60;110269;1272;124563;-91
2023/08/31 02:44:32;;;;;;;;;;;;;;;14.48;100.00;95857.75;110354;1278;23193;-91
2023/08/31 02:46:59;;;;;;;;;;;;;;;14.48;100.00;95854.61;110151;1276;124551;-91
2023/08/31 02:49:26;;;;;;;;;;;;;;;14.48;100.00;95857.55;110401;1278;22411;-91
2023/08/31 02:51:53;;;;;;;;;;;;;;;14.47;100.00;95854.26;110109;1272;124725;-91
2023/08/31 02:54:19;;;;;;;;;;;;;;;14.47;100.00;95849.83;110467;1278;22407;-90
2023/08/31 02:56:47;;;;;;;;;;;;;;;14.46;100.00;95849.27;110351;1278;22424;-91
2023/08/31 02:59:14;;;;;;;;;;;;;;;14.46;100.00;95855.02;110102;1273;125426;-91
2023/08/31 03:01:40;;;;;;;;;;;;;;;14.47;100.00;95852.01;110449;1278;22419;-91
2023/08/31 03:04:08;;;;;;;;;;;;;;;14.46;100.00;95856.60;110233;1278;124793;-90
2023/08/31 03:06:35;;;;;;;;;;;;;;;14.45;100.00;95859.34;110188;1279;22414;-91
2023/08/31 03:09:02;;;;;;;;;;;;;;;14.45;100.00;95863.00;110364;1278;22514;-91
2023/08/31 03:11:28;;;;;;;;;;;;;;;14.45;100.00;95866.91;110142;1279;124664;-91
2023/08/31 03:13:55;;;;;;;;;;;;;;;14.42;100.00;95871.17;110297;1279;22421;-91
2023/08/31 03:16:23;;;;;;;;;;;;;;;14.42;100.00;95870.00;110243;1272;125030;-91
2023/08/31 03:18:49;;;;;;;;;;;;;;;14.41;100.00;95869.62;110278;1276;22479;-91
2023/08/31 03:21:16;;;;;;;;;;;;;;;14.40;100.00;95872.84;110229;1277;22450;-90
2023/08/31 03:23:43;;;;;;;;;;;;;;;14.42;100.00;95875.71;110132;1274;125120;-91
2023/08/31 03:26:09;;;;;;;;;;;;;;;14.43;100.00;95877.52;110348;1272;22551;-90
2023/08/31 03:28:38;;;;;;;;;;;;;;;14.44;100.00;95879.78;110279;1272;125445;-91
2023/08/31 03:31:05;;;;;;;;;;;;;;;14.43;100.00;95879.45;110166;1274;23201;-92
2023/08/31 03:33:33;;;;;;;;;;;;;;;14.43;100.00;95882.46;110156;1271;23328;-91
2023/08/31 03:36:04;;;;;;;;;;;;;;;14.41;100.00;95884.30;110254;1278;126342;-90
2023/08/31 03:38:31;;;;;;;;;;;;;;;14.40;100.00;95884.63;110208;1278;22432;-91
2023/08/31 03:40:57;;;;;;;;;;;;;;;14.41;100.00;95886.95;110211;1278;125020;-91
2023/08/31 03:43:25;;;;;;;;;;;;;;;14.40;100.00;95892.17;110316;1278;22493;-91
2023/08/31 03:45:58;;;;;;;;;;;;;;;14.41;100.00;95891.05;110165;1278;124941;-91
2023/08/31 03:48:24;;;;;;;;;;;;;;;14.41;100.00;95894.14;110363;1271;22452;-91
2023/08/31 03:50:51;;;;;;;;;;;;;;;14.40;100.00;95895.36;110349;1273;22425;-91
2023/08/31 03:53:18;;;;;;;;;;;;;;;14.38;100.00;95893.90;110101;1279;125100;-91
2023/08/31 03:55:45;;;;;;;;;;;;;;;14.38;100.00;95890.16;110336;1278;22406;-91
2023/08/31 03:58:11;;;;;;;;;;;;;;;14.37;100.00;95893.80;110359;1275;125109;-91
2023/08/31 04:00:38;;;;;;;;;;;;;;;14.36;100.00;95895.18;110260;1265;22587;-91
2023/08/31 04:03:05;;;;;;;;;;;;;;;14.34;100.00;95899.17;110322;1278;23212;-92
2023/08/31 04:05:32;;;;;;;;;;;;;;;14.32;100.00;95901.29;110185;1278;124710;-91
2023/08/31 04:07:59;;;;;;;;;;;;;;;14.33;100.00;95905.55;110358;1278;22414;-91
2023/08/31 04:10:26;;;;;;;;;;;;;;;14.33;100.00;95902.58;110245;1275;125092;-91
2023/08/31 04:12:53;;;;;;;;;;;;;;;14.32;100.00;95901.96;110298;1278;23167;-91
2023/08/31 04:15:20;;;;;;;;;;;;;;;14.32;100.00;95903.55;110333;1278;22486;-90
2023/08/31 04:17:47;;;;;;;;;;;;;;;14.33;100.00;95893.28;110064;1271;124659;-91
2023/08/31 04:20:14;;;;;;;;;;;;;;;14.32;100.00;95891.32;110289;1271;22464;-91
2023/08/31 04:22:41;;;;;;;;;;;;;;;14.28;100.00;95893.23;110151;1279;125171;-90
2023/08/31 04:25:07;;;;;;;;;;;;;;;14.27;100.00;95894.17;110380;1278;22423;-91
2023/08/31 04:27:34;;;;;;;;;;;;;;;14.25;100.00;95894.19;110234;1275;22929;-91
2023/08/31 04:30:01;;;;;;;;;;;;;;;14.25;100.00;95894.39;110132;1279;125525;-91
2023/08/31 04:32:27;;;;;;;;;;;;;;;14.25;100.00;95892.86;110345;1272;22476;-91
2023/08/31 04:34:54;;;;;;;;;;;;;;;14.25;100.00;95897.36;110246;1278;124066;-91
2023/08/31 04:37:21;;;;;;;;;;;;;;;14.25;100.00;95897.41;110298;1279;22447;-90
2023/08/31 04:39:47;;;;;;;;;;;;;;;14.25;100.00;95900.34;110307;1272;22575;-91
2023/08/31 04:42:16;;;;;;;;;;;;;;;14.24;100.00;95902.28;110179;1271;124349;-91
2023/08/31 04:44:44;;;;;;;;;;;;;;;14.23;100.00;95902.90;110292;1271;23163;-91
2023/08/31 04:47:10;;;;;;;;;;;;;;;14.25;100.00;95906.24;110224;1273;124894;-91
2023/08/31 04:49:37;;;;;;;;;;;;;;;14.26;100.00;95906.76;110390;1273;22456;-91
2023/08/31 04:52:04;;;;;;;;;;;;;;;14.28;100.00;95905.45;110190;1279;124823;-91
2023/08/31 04:54:30;;;;;;;;;;;;;;;14.29;100.00;95905.36;110351;1278;22939;-91
2023/08/31 04:56:57;;;;;;;;;;;;;;;14.31;100.00;95912.17;110234;1279;22454;-90
2023/08/31 04:59:23;;;;;;;;;;;;;;;14.32;100.00;95918.34;110090;1274;125032;-91
2023/08/31 05:01:54;;;;;;;;;;;;;;;14.34;100.00;95921.02;110269;1275;22515;-91
2023/08/31 05:04:21;;;;;;;;;;;;;;;14.36;100.00;95928.39;110246;1279;125100;-91
2023/08/31 05:06:48;;;;;;;;;;;;;;;14.38;100.00;95929.09;110293;1279;22444;-91
2023/08/31 05:09:16;;;;;;;;;;;;;;;14.40;100.00;95926.45;110339;1278;22490;-89
2023/08/31 05:11:43;;;;;;;;;;;;;;;14.41;100.00;95926.48;110096;1279;125182;-91
2023/08/31 05:14:10;;;;;;;;;;;;;;;14.41;100.00;95928.36;110210;1272;22417;-91
2023/08/31 05:16:38;;;;;;;;;;;;;;;14.42;100.00;95930.80;110203;1279;125120;-91
2023/08/31 05:19:04;;;;;;;;;;;;;;;14.43;100.00;95930.00;110251;1275;23237;-91
2023/08/31 05:21:31;;;;;;;;;;;;;;;14.44;100.00;95930.93;110306;1272;23220;-91
2023/08/31 05:23:58;;;;;;;;;;;;;;;14.46;100.00;95932.40;110125;1279;125482;-90
2023/08/31 05:26:25;;;;;;;;;;;;;;;14.49;100.00;95935.80;110333;1272;22544;-91
2023/08/31 05:28:52;;;;;;;;;;;;;;;14.52;100.00;95934.53;110245;1272;124818;-91
2023/08/31 05:31:18;;;;;;;;;;;;;;;14.54;100.00;95927.79;110294;1271;22450;-91
2023/08/31 05:33:46;;;;;;;;;;;;;;;14.56;100.00;95926.33;110358;1271;23270;-91
2023/08/31 05:36:12;;;;;;;;;;;;;;;14.57;100.00;95926.95;110257;1278;124860;-91
2023/08/31 05:38:39;;;;;;;;;;;;;;;14.58;100.00;95926.48;110124;1274;22451;-91
2023/08/31 05:41:06;;;;;;;;;;;;;;;14.61;100.00;95926.46;110186;1272;124607;-91
2023/08/31 05:43:34;;;;;;;;;;;;;;;14.64;100.00;95927.96;110466;1272;22427;-91
2023/08/31 05:46:01;;;;;;;;;;;;;;;14.66;100.00;95929.52;110163;1272;125725;-91
2023/08/31 05:48:28;;;;;;;;;;;;;;;14.69;100.00;95932.58;110193;1279;22477;-90
2023/08/31 05:50:55;;;;;;;;;;;;;;;14.74;100.00;95941.05;110313;1273;22446;-91
2023/08/31 05:53:22;;;;;;;;;;;;;;;14.76;100.00;95940.70;110255;1276;125441;-91
2023/08/31 05:55:49;;;;;;;;;;;;;;;14.80;100.00;95948.34;110261;1272;22901;-92
2023/08/31 05:58:15;;;;;;;;;;;;;;;14.85;100.00;95949.34;110197;1272;146540;-91
2023/08/31 06:00:42;;;;;;;;;;;;;;;14.89;100.00;95947.88;110360;1275;22449;-91
2023/08/31 06:03:10;;;;;;;;;;;;;;;14.92;100.00;95943.82;110188;1279;22492;-91
2023/08/31 06:05:38;;;;;;;;;;;;;;;14.94;100.00;95947.29;110249;1272;124977;-91
2023/08/31 06:08:05;;;;;;;;;;;;;;;14.97;100.00;95949.68;110358;1272;22428;-90
2023/08/31 06:10:31;;;;;;;;;;;;;;;14.99;100.00;95949.95;110178;1279;124944;-91
2023/08/31 06:12:58;;;;;;;;;;;;;;;14.99;100.00;95958.39;110416;1278;22537;-91
2023/08/31 06:15:26;;;;;;;;;;;;;;;15.02;100.00;95962.22;110323;1279;22441;-90
2023/08/31 06:17:52;;;;;;;;;;;;;;;15.06;100.00;95963.62;110142;1279;124919;-91
2023/08/31 06:20:19;;;;;;;;;;;;;;;15.08;100.00;95964.52;110331;1275;22455;-91
2023/08/31 06:22:45;;;;;;;;;;;;;;;15.09;100.00;95961.45;110325;1278;124893;-90
2023/08/31 06:25:15;;;;;;;;;;;;;;;15.09;100.00;95957.59;110253;1279;22476;-91
2023/08/31 06:27:43;;;;;;;;;;;;;;;15.10;100.00;95952.02;110235;1279;22487;-91
2023/08/31 06:30:15;;;;;;;;;;;;;;;15.12;100.00;95948.85;110157;1276;124949;-91
2023/08/31 06:32:43;;;;;;;;;;;;;;;15.15;100.00;95952.94;110217;1265;23229;-91
2023/08/31 06:35:10;;;;;;;;;;;;;;;15.19;100.00;95959.20;110181;1272;125119;-91
2023/08/31 06:37:37;;;;;;;;;;;;;;;15.22;100.00;95964.70;110289;1279;23212;-91
2023/08/31 06:40:04;;;;;;;;;;;;;;;15.22;100.00;95970.19;110202;1277;126200;-91
2023/08/31 06:42:31;;;;;;;;;;;;;;;15.23;100.00;95972.78;110281;1275;22412;-91
2023/08/31 06:44:58;;;;;;;;;;;;;;;15.24;100.00;95977.00;110401;1272;22421;-91
2023/08/31 06:47:24;;;;;;;;;;;;;;;15.23;100.00;95978.02;110107;1275;125071;-91
2023/08/31 06:49:51;;;;;;;;;;;;;;;15.24;100.00;95974.80;110372;1278;22429;-91
2023/08/31 06:52:18;;;;;;;;;;;;;;;15.25;100.00;95973.52;110240;1279;124872;-91
2023/08/31 06:54:55;;;;;;;;;;;;;;;15.24;100.00;95972.38;110344;1278;22386;-91
2023/08/31 06:57:24;;;;;;;;;;;;;;;15.23;100.00;95975.66;110464;1278;22359;-91
2023/08/31 06:59:51;;;;;;;;;;;;;;;15.24;100.00;95977.40;110070;1279;124628;-90
2023/08/31 07:02:19;;;;;;;;;;;;;;;15.26;100.00;95979.67;110253;1274;22439;-91
2023/08/31 07:04:47;;;;;;;;;;;;;;;15.29;100.00;95983.23;110098;1277;124975;-90
2023/08/31 07:07:14;;;;;;;;;;;;;;;15.33;100.00;95982.95;110334;1278;22408;-91
2023/08/31 07:09:45;;;;;;;;;;;;;;;15.36;100.00;95990.23;110306;1278;22496;-91
2023/08/31 07:12:12;;;;;;;;;;;;;;;15.38;100.00;95993.66;110267;1278;124444;-91
2023/08/31 07:14:40;;;;;;;;;;;;;;;15.41;100.00;95998.98;110208;1277;22431;-91
2023/08/31 07:17:07;;;;;;;;;;;;;;;15.45;100.00;95998.98;110229;1272;125290;-90
2023/08/31 07:19:37;;;;;;;;;;;;;;;15.47;100.00;95992.55;110361;1273;22474;-91
2023/08/31 07:22:04;;;;;;;;;;;;;;;15.51;100.00;95990.56;110210;1276;125125;-90
2023/08/31 07:24:31;;;;;;;;;;;;;;;15.56;100.00;95992.83;110323;1278;22419;-91
2023/08/31 07:26:58;;;;;;;;;;;;;;;15.61;100.00;95996.33;110350;1279;22409;-90
2023/08/31 07:29:24;;;;;;;;;;;;;;;15.64;100.00;95992.92;110037;1273;124623;-91
2023/08/31 07:31:51;;;;;;;;;;;;;;;15.67;100.00;95994.41;110267;1272;22425;-91
2023/08/31 07:34:17;;;;;;;;;;;;;;;15.69;100.00;96004.09;110263;1275;125623;-91
2023/08/31 07:36:44;;;;;;;;;;;;;;;15.71;100.00;96005.23;110313;1278;23366;-91
2023/08/31 07:39:11;;;;;;;;;;;;;;;15.73;100.00;96010.11;110326;1278;22428;-91
2023/08/31 07:41:37;;;;;;;;;;;;;;;15.76;100.00;96011.44;110168;1275;125383;-91
2023/08/31 07:44:05;;;;;;;;;;;;;;;15.80;100.00;96012.04;110330;1278;22464;-91
2023/08/31 07:46:32;;;;;;;;;;;;;;;15.84;100.00;96017.85;110190;1278;125227;-90
2023/08/31 07:48:58;;;;;;;;;;;;;;;15.88;100.00;96022.08;110159;1279;22471;-90
2023/08/31 07:51:25;;;;;;;;;;;;;;;15.89;100.00;96028.19;110316;1278;22636;-90
2023/08/31 07:53:52;;;;;;;;;;;;;;;15.90;100.00;96029.37;110201;1278;124809;-91
2023/08/31 07:56:19;;;;;;;;;;;;;;;15.91;100.00;96032.79;110331;1272;23199;-90
2023/08/31 07:58:45;;;;;;;;;;;;;;;15.91;100.00;96034.04;110059;1277;125891;-91
2023/08/31 08:01:12;;;;;;;;;;;;;;;15.93;100.00;96028.37;110277;1279;22467;-91
2023/08/31 08:03:39;;;;;;;;;;;;;;;15.95;100.00;96030.05;110336;1272;22474;-92
2023/08/31 08:06:05;;;;;;;;;;;;;;;15.96;100.00;96031.16;110150;1278;124763;-90
2023/08/31 08:08:32;;;;;;;;;;;;;;;15.99;100.00;96029.75;110202;1275;23259;-90
2023/08/31 08:10:59;;;;;;;;;;;;;;;16.04;100.00;96029.25;110194;1275;125271;-91
2023/08/31 08:13:26;;;;;;;;;;;;;;;16.10;100.00;96029.77;110214;1279;22532;-91
2023/08/31 08:15:53;;;;;;;;;;;;;;;16.16;100.00;96031.18;110230;1271;125302;-91
2023/08/31 08:18:20;;;;;;;;;;;;;;;16.19;100.00;96038.11;110343;1279;23093;-91
2023/08/31 08:20:48;;;;;;;;;;;;;;;16.24;100.00;96039.57;110334;1279;23106;-91
2023/08/31 08:23:14;;;;;;;;;;;;;;;16.29;100.00;96047.16;110183;1279;125213;-91
2023/08/31 08:25:41;;;;;;;;;;;;;;;16.35;100.00;96050.92;110125;1278;22450;-91
2023/08/31 08:28:07;;;;;;;;;;;;;;;16.39;100.00;96054.10;110223;1278;125013;-91
2023/08/31 08:30:35;;;;;;;;;;;;;;;16.42;100.00;96056.75;110326;1275;22418;-90
2023/08/31 08:33:02;;;;;;;;;;;;;;;16.49;100.00;96061.21;110315;1275;22509;-91
2023/08/31 08:35:28;;;;;;;;;;;;;;;16.56;100.00;96062.77;110104;1275;124799;-90
2023/08/31 08:37:55;;;;;;;;;;;;;;;16.62;100.00;96063.73;110325;1278;22419;-90
2023/08/31 08:40:22;;;;;;;;;;;;;;;16.68;100.00;96064.36;110224;1273;125751;-90
2023/08/31 08:42:49;;;;;;;;;;;;;;;16.74;100.00;96065.17;110304;1272;22905;-90
2023/08/31 08:45:16;;;;;;;;;;;;;;;16.76;100.00;96067.45;110328;1272;22466;-90
2023/08/31 08:47:43;;;;;;;;;;;;;;;16.78;100.00;96065.45;110229;1278;125437;-91
2023/08/31 08:50:13;;;;;;;;;;;;;;;16.81;100.00;96067.24;110279;1279;22472;-91
2023/08/31 08:52:40;;;;;;;;;;;;;;;16.87;100.00;96070.69;110088;1279;127728;-91
2023/08/31 08:55:08;;;;;;;;;;;;;;;16.90;100.00;96076.08;110274;1277;22439;-91
2023/08/31 08:57:34;;;;;;;;;;;;;;;16.95;100.00;96078.42;110304;1279;23335;-90
2023/08/31 09:00:03;;;;;;;;;;;;;;;16.99;100.00;96076.77;110204;1275;125332;-91
2023/08/31 09:02:30;;;;;;;;;;;;;;;17.03;100.00;96077.50;110283;1276;22470;-91
2023/08/31 09:04:57;;;;;;;;;;;;;;;17.06;100.00;96075.30;110209;1273;126214;-90
2023/08/31 09:07:24;;;;;;;;;;;;;;;17.08;100.00;96079.91;110340;1273;22422;-90
2023/08/31 09:09:51;;;;;;;;;;;;;;;17.13;100.00;96083.33;110254;1279;125299;-90
2023/08/31 09:12:19;;;;;;;;;;;;;;;17.18;100.00;96079.39;110325;1275;22442;-90
2023/08/31 09:15:05;;;;;;;;;;;;;;;17.21;100.00;96077.30;110297;1276;22487;-91
2023/08/31 09:17:43;;;;;;;;;;;;;;;17.28;100.00;96081.92;110206;1272;125257;-90
2023/08/31 09:20:11;;;;;;;;;;;;;;;17.37;100.00;96083.52;110323;1276;22443;-90
2023/08/31 09:22:41;;;;;;;;;;;;;;;17.45;100.00;96090.31;110177;1272;125617;-91
2023/08/31 09:25:08;;;;;;;;;;;;;;;17.54;100.00;96092.03;110343;1275;22448;-91
2023/08/31 09:27:38;;;;;;;;;;;;;;;17.59;100.00;96098.62;110298;1278;22453;-91
2023/08/31 09:30:06;;;;;;;;;;;;;;;17.59;100.00;96097.16;110263;1275;124812;-91
2023/08/31 09:32:35;;;;;;;;;;;;;;;17.59;100.00;96095.63;110169;1276;22445;-90
2023/08/31 09:35:03;;;;;;;;;;;;;;;17.64;100.00;96098.51;110215;1279;125481;-90
2023/08/31 09:37:30;;;;;;;;;;;;;;;17.67;100.00;96099.27;110358;1272;22460;-90
2023/08/31 09:40:01;;;;;;;;;;;;;;;17.68;100.00;96102.71;110211;1273;125363;-91
2023/08/31 09:42:38;;;;;;;;;;;;;;;17.69;100.00;96105.45;110331;1279;22471;-91
2023/08/31 09:45:05;;;;;;;;;;;;;;;17.74;100.00;96108.81;110242;1274;22468;-91
2023/08/31 09:47:32;;;;;;;;;;;;;;;17.75;100.00;96111.95;110270;1279;125553;-91
2023/08/31 09:50:00;;;;;;;;;;;;;;;17.80;100.00;96107.73;110320;1278;22434;-90
2023/08/31 09:52:46;;;;;;;;;;;;;;;17.89;100.00;96110.11;110250;1278;125083;-90
2023/08/31 09:55:14;;;;;;;;;;;;;;;17.96;100.00;96110.45;110257;1279;22426;-90
2023/08/31 09:57:41;;;;;;;;;;;;;;;18.03;100.00;96111.36;110300;1279;22467;-90
2023/08/31 10:00:10;;;;;;;;;;;;;;;18.06;100.00;96111.54;110027;1275;124747;-91
2023/08/31 10:02:37;;;;;;;;;;;;;;;18.05;100.00;96117.81;110368;1273;22428;-91
2023/08/31 10:05:04;;;;;;;;;;;;;;;17.96;99.67;96117.93;110094;1279;125307;-91
2023/08/31 10:07:31;;;;;;;;;;;;;;;17.87;100.00;96125.64;110121;1279;22431;-91
2023/08/31 10:09:57;;;;;;;;;;;;;;;17.83;100.00;96128.83;110207;1273;125330;-91
2023/08/31 10:12:24;;;;;;;;;;;;;;;17.83;100.00;96130.60;110272;1276;22635;-90
2023/08/31 10:14:52;;;;;;;;;;;;;;;17.81;99.87;96126.89;110246;1278;22421;-91
2023/08/31 10:17:20;;;;;;;;;;;;;;;17.85;100.00;96127.10;110243;1279;125384;-90
2023/08/31 10:19:46;;;;;;;;;;;;;;;17.91;100.00;96127.30;110284;1279;23122;-90
2023/08/31 10:22:14;;;;;;;;;;;;;;;17.99;100.00;96120.34;110108;1279;125316;-90
2023/08/31 10:24:57;;;;;;;;;;;;;;;18.04;100.00;96123.58;110322;1276;22463;-91
2023/08/31 10:27:25;;;;;;;;;;;;;;;18.10;99.52;96126.44;110321;1279;23134;-90
2023/08/31 10:29:55;;;;;;;;;;;;;;;18.13;99.84;96124.39;110035;1279;125058;-90
2023/08/31 10:32:34;;;;;;;;;;;;;;;18.17;99.94;96121.77;110359;1279;22510;-91
2023/08/31 10:35:05;;;;;;;;;;;;;;;18.19;99.09;96120.70;110086;1279;125116;-90
2023/08/31 10:37:32;;;;;;;;;;;;;;;18.23;99.44;96124.96;110314;1272;22424;-91
2023/08/31 10:40:13;;;;;;;;;;;;;;;18.29;99.65;96123.21;110207;1275;124551;-91
2023/08/31 10:42:42;;;;;;;;;;;;;;;18.39;98.05;96122.48;110336;1273;22429;-91
2023/08/31 10:45:10;;;;;;;;;;;;;;;18.44;97.06;96122.68;110377;1273;23263;-91
2023/08/31 10:47:37;;;;;;;;;;;;;;;18.49;96.89;96126.13;110214;1279;124971;-91
2023/08/31 10:50:30;;;;;;;;;;;;;;;18.51;97.42;96121.90;110166;1276;22450;-91
2023/08/31 10:52:57;;;;;;;;;;;;;;;18.52;96.20;96124.33;110228;1279;124943;-92
2023/08/31 10:55:26;;;;;;;;;;;;;;;18.49;96.45;96131.45;110369;1272;22425;-90
2023/08/31 10:57:52;;;;;;;;;;;;;;;18.48;96.43;96128.37;110286;1272;125058;-91
2023/08/31 11:00:39;;;;;;;;;;;;;;;18.43;94.03;96130.35;110192;1274;22469;-91
2023/08/31 11:03:07;;;;;;;;;;;;;;;18.34;94.60;96133.95;110322;1271;22444;-92
2023/08/31 11:05:35;;;;;;;;;;;;;;;18.28;94.84;96138.08;110290;1279;124789;-92
2023/08/31 11:08:02;;;;;;;;;;;;;;;18.32;95.50;96135.68;110282;1273;23268;-92
2023/08/31 11:10:30;;;;;;;;;;;;;;;18.40;92.05;96148.30;110236;1279;125192;-92
2023/08/31 11:12:58;;;;;;;;;;;;;;;18.43;91.51;96144.81;110326;1273;22426;-92
2023/08/31 11:15:32;;;;;;;;;;;;;;;18.44;91.70;96146.35;110349;1274;22500;-92
2023/08/31 11:17:59;;;;;;;;;;;;;;;18.52;92.57;96144.17;110103;1273;125092;-92
2023/08/31 11:20:27;;;;;;;;;;;;;;;18.61;90.98;96143.07;110371;1275;22406;-92
2023/08/31 11:22:54;;;;;;;;;;;;;;;18.69;92.83;96146.95;110069;1276;124840;-93
2023/08/31 11:25:25;;;;;;;;;;;;;;;18.74;92.03;96145.38;110388;1279;22418;-92
2023/08/31 11:28:11;;;;;;;;;;;;;;;18.83;92.91;96145.19;110216;1279;125114;-92
2023/08/31 11:30:38;;;;;;;;;;;;;;;18.93;93.26;96140.30;110363;1272;22431;-93
2023/08/31 11:33:06;;;;;;;;;;;;;;;19.01;94.10;96143.63;110310;1278;22557;-93
2023/08/31 11:35:33;;;;;;;;;;;;;;;19.09;93.71;96144.13;110141;1279;125129;-92
2023/08/31 11:38:00;;;;;;;;;;;;;;;19.13;91.61;96142.02;110402;1275;22439;-92
2023/08/31 11:40:39;;;;;;;;;;;;;;;19.17;89.78;96141.23;110288;1278;123887;-92
2023/08/31 11:43:18;;;;;;;;;;;;;;;19.20;89.26;96140.48;110398;1274;22444;-91
2023/08/31 11:45:51;;;;;;;;;;;;;;;19.24;89.70;96139.18;110371;1279;125240;-91
2023/08/31 11:48:19;;;;;;;;;;;;;;;19.27;88.91;96138.91;110283;1272;22509;-91
2023/08/31 11:50:46;;;;;;;;;;;;;;;19.33;89.21;96141.46;110292;1273;22477;-92
2023/08/31 11:53:32;;;;;;;;;;;;;;;19.40;88.68;96137.30;110221;1279;125095;-92
2023/08/31 11:56:01;;;;;;;;;;;;;;;19.40;87.94;96134.34;110374;1278;22508;-92
2023/08/31 11:58:29;;;;;;;;;;;;;;;19.39;87.53;96132.97;110218;1272;125378;-91
2023/08/31 12:00:59;;;;;;;;;;;;;;;19.39;86.26;96126.48;110315;1279;22442;-91
2023/08/31 12:03:46;;;;;;;;;;;;;;;19.42;86.68;96116.41;110391;1273;22446;-91
2023/08/31 12:06:17;;;;;;;;;;;;;;;19.43;82.66;96111.26;110300;1271;22501;-91
2023/08/31 12:08:44;;;;;;;;;;;;;;;19.45;81.79;96115.02;110357;1275;22543;-92
2023/08/31 12:11:11;;;;;;;;;;;;;;;19.47;82.55;96112.23;110113;1279;124994;-92
2023/08/31 12:13:39;;;;;;;;;;;;;;;19.52;83.43;96117.63;110371;1272;22583;-92
2023/08/31 12:16:13;;;;;;;;;;;;;;;19.56;82.43;96115.72;110127;1277;124986;-93
2023/08/31 12:18:40;;;;;;;;;;;;;;;19.61;84.24;96117.94;110455;1274;23585;-92
2023/08/31 12:21:08;;;;;;;;;;;;;;;19.67;81.90;96123.37;110344;1277;22847;-92
2023/08/31 12:23:34;;;;;;;;;;;;;;;19.68;82.00;96116.77;110218;1279;124774;-93
2023/08/31 12:26:02;;;;;;;;;;;;;;;19.71;81.23;96119.02;110185;1278;23119;-92
2023/08/31 12:28:29;;;;;;;;;;;;;;;19.74;81.04;96114.57;110184;1273;125282;-92
2023/08/31 12:30:56;;;;;;;;;;;;;;;19.77;80.84;96114.81;110423;1278;22461;-92